Time,TemperatureF,DewpointF,PressureIn,WindDirection,WindDirectionDegrees,WindSpeedMPH,WindSpeedGustMPH,Humidity,HourlyPrecipIn,Conditions,Clouds,dailyrainin,SolarRadiationWatts/m^2,SoftwareType,DateUTC
2013-05-27 00:00:00,78.8,70.2,30.02,SE,135,9.2,9.2,75,0.00,CLR,,0.00,270.0,WeatherDisplay:10.37,2013-05-27 05:00:00,
2013-05-27 00:05:00,79.0,70.4,30.02,SE,135,6.9,6.9,75,0.00,CLR,,0.00,270.0,WeatherDisplay:10.37,2013-05-27 05:05:00,
2013-05-27 00:11:00,79.0,70.4,30.03,SE,135,6.9,6.9,75,0.00,CLR,,0.00,270.0,WeatherDisplay:10.37,2013-05-27 05:11:00,
2013-05-27 00:16:00,78.6,70.0,30.03,SSE,158,6.9,6.9,75,0.00,CLR,,0.00,270.0,WeatherDisplay:10.37,2013-05-27 05:16:00,
2013-05-27 00:21:00,78.3,69.7,30.03,SE,135,4.6,4.6,75,0.00,CLR,,0.00,260.0,WeatherDisplay:10.37,2013-05-27 05:21:00,
2013-05-27 00:26:00,78.3,69.7,30.03,SSE,158,4.6,4.6,75,0.00,CLR,,0.00,250.0,WeatherDisplay:10.37,2013-05-27 05:26:00,
2013-05-27 00:31:00,78.3,69.7,30.02,SE,135,7.1,7.1,75,0.00,CLR,,0.00,260.0,WeatherDisplay:10.37,2013-05-27 05:31:00,
2013-05-27 00:36:00,78.1,69.5,30.02,SSE,158,9.2,9.2,75,0.00,CLR,,0.00,270.0,WeatherDisplay:10.37,2013-05-27 05:36:00,
2013-05-27 00:41:00,77.9,69.7,30.02,SE,135,7.4,7.4,76,0.00,CLR,,0.00,290.0,WeatherDisplay:10.37,2013-05-27 05:41:00,
2013-05-27 00:47:00,77.9,69.7,30.02,SSE,158,6.9,6.9,76,0.00,CLR,,0.00,290.0,WeatherDisplay:10.37,2013-05-27 05:47:00,
2013-05-27 00:52:00,77.9,69.7,30.02,SE,135,4.6,4.6,76,0.00,CLR,,0.00,310.0,WeatherDisplay:10.37,2013-05-27 05:52:00,
2013-05-27 00:57:00,77.5,69.8,30.02,SSE,158,2.3,4.3,77,0.00,CLR,,0.00,310.0,WeatherDisplay:10.37,2013-05-27 05:57:00,
2013-05-27 01:02:00,77.5,69.8,30.02,SE,135,11.8,11.8,77,0.00,CLR,,0.00,290.0,WeatherDisplay:10.37,2013-05-27 06:02:00,
2013-05-27 01:07:00,77.4,69.6,30.02,SE,135,4.6,4.6,77,0.00,CLR,,0.00,290.0,WeatherDisplay:10.37,2013-05-27 06:07:00,
2013-05-27 01:13:00,77.4,69.6,30.02,SSE,158,5.1,5.1,77,0.00,CLR,,0.00,0.0,WeatherDisplay:10.37,2013-05-27 06:13:00,
2013-05-27 01:18:00,77.2,69.4,30.02,SSE,158,8.1,8.1,77,0.00,CLR,,0.00,0.0,WeatherDisplay:10.37,2013-05-27 06:18:00,
2013-05-27 01:23:00,77.2,69.8,30.02,SSE,158,4.6,4.6,78,0.00,CLR,,0.00,280.0,WeatherDisplay:10.37,2013-05-27 06:23:00,
2013-05-27 01:28:00,77.2,69.8,30.02,SE,135,4.6,4.6,78,0.00,CLR,,0.00,280.0,WeatherDisplay:10.37,2013-05-27 06:28:00,
2013-05-27 01:33:00,77.0,69.6,30.01,SSE,158,4.6,4.6,78,0.00,CLR,,0.00,270.0,WeatherDisplay:10.37,2013-05-27 06:33:00,
2013-05-27 01:38:00,76.8,69.4,30.01,WSW,248,3.5,3.5,78,0.00,CLR,,0.00,270.0,WeatherDisplay:10.37,2013-05-27 06:38:00,
2013-05-27 01:43:00,76.6,69.3,30.01,SE,135,6.9,6.9,78,0.00,CLR,,0.00,270.0,WeatherDisplay:10.37,2013-05-27 06:43:00,
2013-05-27 01:48:00,76.8,69.8,30.01,SSE,158,3.5,3.5,79,0.00,CLR,,0.00,270.0,WeatherDisplay:10.37,2013-05-27 06:48:00,
2013-05-27 01:54:00,76.6,69.6,30.00,SE,135,8.1,8.1,79,0.00,CLR,,0.00,0.0,WeatherDisplay:10.37,2013-05-27 06:54:00,
2013-05-27 01:59:00,76.6,69.6,30.00,South,180,5.8,5.8,79,0.00,CLR,,0.00,0.0,WeatherDisplay:10.37,2013-05-27 06:59:00,
2013-05-27 02:04:00,76.5,69.5,30.00,SE,135,2.3,3.9,79,0.00,CLR,,0.00,240.0,WeatherDisplay:10.37,2013-05-27 07:04:00,
2013-05-27 02:09:00,76.5,69.5,30.00,West,270,4.6,4.6,79,0.00,CLR,,0.00,240.0,WeatherDisplay:10.37,2013-05-27 07:09:00,
2013-05-27 02:14:00,76.5,69.5,30.01,SE,135,5.4,5.4,79,0.00,CLR,,0.00,260.0,WeatherDisplay:10.37,2013-05-27 07:14:00,
2013-05-27 02:19:00,76.5,69.8,30.01,SSE,158,10.4,10.4,80,0.00,CLR,,0.00,230.0,WeatherDisplay:10.37,2013-05-27 07:19:00,
2013-05-27 02:25:00,76.5,69.8,30.01,ESE,112,8.1,8.1,80,0.00,CLR,,0.00,240.0,WeatherDisplay:10.37,2013-05-27 07:25:00,
2013-05-27 02:30:00,76.1,69.5,29.99,SW,225,4.6,4.6,80,0.00,CLR,,0.00,240.0,WeatherDisplay:10.37,2013-05-27 07:30:00,
2013-05-27 02:35:00,76.1,69.5,29.99,SE,135,10.4,10.4,80,0.00,CLR,,0.00,240.0,WeatherDisplay:10.37,2013-05-27 07:35:00,
2013-05-27 02:40:00,75.9,69.3,29.99,SSE,158,8.1,8.1,80,0.00,CLR,,0.00,250.0,WeatherDisplay:10.37,2013-05-27 07:40:00,
2013-05-27 02:45:00,75.9,69.7,29.99,South,180,6.9,6.9,81,0.00,CLR,,0.00,260.0,WeatherDisplay:10.37,2013-05-27 07:45:00,
2013-05-27 02:51:00,75.7,69.5,29.99,SSE,158,5.8,5.8,81,0.00,CLR,,0.00,220.0,WeatherDisplay:10.37,2013-05-27 07:51:00,
2013-05-27 02:56:00,75.7,69.5,29.99,West,270,3.5,3.9,81,0.00,CLR,,0.00,240.0,WeatherDisplay:10.37,2013-05-27 07:56:00,
2013-05-27 03:01:00,75.6,69.3,29.99,South,180,11.6,11.6,81,0.00,CLR,,0.00,230.0,WeatherDisplay:10.37,2013-05-27 08:01:00,
2013-05-27 03:06:00,75.6,69.3,29.99,SSE,158,5.2,5.2,81,0.00,CLR,,0.00,230.0,WeatherDisplay:10.37,2013-05-27 08:06:00,
2013-05-27 03:11:00,75.6,69.3,29.98,SSE,158,4.6,4.6,81,0.00,CLR,,0.00,220.0,WeatherDisplay:10.37,2013-05-27 08:11:00,
2013-05-27 03:16:00,75.4,69.1,29.98,SW,225,8.3,8.3,81,0.00,CLR,,0.00,220.0,WeatherDisplay:10.37,2013-05-27 08:16:00,
2013-05-27 03:21:00,75.4,69.5,29.98,SSE,158,11.5,11.5,82,0.00,CLR,,0.00,210.0,WeatherDisplay:10.37,2013-05-27 08:21:00,
2013-05-27 03:26:00,75.4,69.5,29.98,NW,315,4.6,4.6,82,0.00,CLR,,0.00,210.0,WeatherDisplay:10.37,2013-05-27 08:26:00,
2013-05-27 03:32:00,75.2,69.3,29.99,South,180,10.4,10.4,82,0.00,CLR,,0.00,210.0,WeatherDisplay:10.37,2013-05-27 08:32:00,
2013-05-27 03:37:00,75.0,69.1,29.99,West,270,6.7,6.7,82,0.00,CLR,,0.00,190.0,WeatherDisplay:10.37,2013-05-27 08:37:00,
2013-05-27 03:42:00,75.0,69.1,29.99,SSE,158,5.8,5.8,82,0.00,CLR,,0.00,190.0,WeatherDisplay:10.37,2013-05-27 08:42:00,
2013-05-27 03:47:00,75.0,69.1,29.99,SSE,158,5.8,5.8,82,0.00,CLR,,0.00,190.0,WeatherDisplay:10.37,2013-05-27 08:47:00,
2013-05-27 03:52:00,74.8,68.6,29.97,SW,225,9.2,9.2,81,0.00,CLR,,0.00,190.0,WeatherDisplay:10.37,2013-05-27 08:52:00,
2013-05-27 03:57:00,74.7,68.4,29.97,South,180,6.9,6.9,81,0.00,CLR,,0.00,200.0,WeatherDisplay:10.37,2013-05-27 08:57:00,
2013-05-27 04:03:00,74.7,68.4,29.97,South,180,7.2,7.2,81,0.00,CLR,,0.00,0.0,WeatherDisplay:10.37,2013-05-27 09:03:00,
2013-05-27 04:08:00,74.5,68.3,29.97,SSE,158,3.9,4.7,81,0.00,CLR,,0.00,190.0,WeatherDisplay:10.37,2013-05-27 09:08:00,
2013-05-27 04:13:00,74.5,68.6,29.97,SW,225,4.6,4.6,82,0.00,CLR,,0.00,230.0,WeatherDisplay:10.37,2013-05-27 09:13:00,
2013-05-27 04:18:00,74.3,68.4,29.97,SSE,158,6.9,6.9,82,0.00,CLR,,0.00,210.0,WeatherDisplay:10.37,2013-05-27 09:18:00,
2013-05-27 04:23:00,74.3,68.4,29.97,South,180,5.8,5.8,82,0.00,CLR,,0.00,220.0,WeatherDisplay:10.37,2013-05-27 09:23:00,
2013-05-27 04:28:00,74.3,68.4,29.97,SE,135,4.6,4.6,82,0.00,CLR,,0.00,220.0,WeatherDisplay:10.37,2013-05-27 09:28:00,
2013-05-27 04:33:00,74.3,68.4,29.97,SSE,158,6.9,6.9,82,0.00,CLR,,0.00,220.0,WeatherDisplay:10.37,2013-05-27 09:33:00,
2013-05-27 04:38:00,73.9,68.4,29.97,WSW,248,5.8,5.8,83,0.00,CLR,,0.00,210.0,WeatherDisplay:10.37,2013-05-27 09:38:00,
2013-05-27 04:43:00,73.9,68.4,29.97,South,180,3.5,3.5,83,0.00,CLR,,0.00,220.0,WeatherDisplay:10.37,2013-05-27 09:43:00,
2013-05-27 04:49:00,73.8,68.3,29.97,SSE,158,10.4,10.4,83,0.00,CLR,,0.00,0.0,WeatherDisplay:10.37,2013-05-27 09:49:00,
2013-05-27 04:54:00,73.6,68.1,29.97,South,180,4.6,4.6,83,0.00,CLR,,0.00,180.0,WeatherDisplay:10.37,2013-05-27 09:54:00,
2013-05-27 04:59:00,73.6,68.1,29.97,SSE,158,9.2,9.2,83,0.00,CLR,,0.00,160.0,WeatherDisplay:10.37,2013-05-27 09:59:00,
2013-05-27 05:04:00,73.4,68.3,29.97,NNE,22,9.2,9.2,84,0.00,CLR,,0.00,180.0,WeatherDisplay:10.37,2013-05-27 10:04:00,
2013-05-27 05:09:00,73.4,68.3,29.97,SSE,158,5.8,5.8,84,0.00,CLR,,0.00,200.0,WeatherDisplay:10.37,2013-05-27 10:09:00,
2013-05-27 05:14:00,73.4,68.3,29.97,SSE,158,5.8,5.8,84,0.00,CLR,,0.00,210.0,WeatherDisplay:10.37,2013-05-27 10:14:00,
2013-05-27 05:20:00,73.4,68.3,29.97,SSW,202,4.6,4.6,84,0.00,CLR,,0.00,0.0,WeatherDisplay:10.37,2013-05-27 10:20:00,
2013-05-27 05:25:00,73.4,68.3,29.97,SSE,158,6.9,6.9,84,0.00,CLR,,0.00,210.0,WeatherDisplay:10.37,2013-05-27 10:25:00,
2013-05-27 05:30:00,73.2,68.1,29.97,SSE,158,4.6,4.6,84,0.00,CLR,,0.00,150.0,WeatherDisplay:10.37,2013-05-27 10:30:00,
2013-05-27 05:35:00,73.0,67.9,29.97,South,180,9.2,9.2,84,0.00,CLR,,0.00,140.0,WeatherDisplay:10.37,2013-05-27 10:35:00,
2013-05-27 05:41:00,73.2,68.1,29.97,SW,225,8.1,8.1,84,0.00,CLR,,0.00,0.0,WeatherDisplay:10.37,2013-05-27 10:41:00,
2013-05-27 05:46:00,73.2,68.1,29.97,WSW,248,8.1,8.1,84,0.00,CLR,,0.00,160.0,WeatherDisplay:10.37,2013-05-27 10:46:00,
2013-05-27 05:51:00,73.0,67.9,29.95,SSE,158,9.2,9.2,84,0.00,CLR,,0.00,170.0,WeatherDisplay:10.37,2013-05-27 10:51:00,
2013-05-27 05:56:00,73.0,67.9,29.95,SE,135,4.6,4.6,84,0.00,CLR,,0.00,180.0,WeatherDisplay:10.37,2013-05-27 10:56:00,
2013-05-27 06:01:00,73.0,68.3,29.95,West,270,4.6,4.6,85,0.00,OVC,,0.00,170.0,WeatherDisplay:10.37,2013-05-27 11:01:00,
2013-05-27 06:06:00,73.0,68.3,29.95,West,270,2.3,3.5,85,0.00,OVC,,0.00,170.0,WeatherDisplay:10.37,2013-05-27 11:06:00,
2013-05-27 06:11:00,72.9,68.1,29.97,ESE,112,2.3,3.3,85,0.00,OVC,,0.00,150.0,WeatherDisplay:10.37,2013-05-27 11:11:00,
2013-05-27 06:16:00,72.9,68.1,29.97,SSE,158,4.6,4.6,85,0.00,OVC,,0.00,150.0,WeatherDisplay:10.37,2013-05-27 11:16:00,
2013-05-27 06:22:00,72.9,68.1,29.97,South,180,5.8,5.8,85,0.00,OVC,,0.00,190.0,WeatherDisplay:10.37,2013-05-27 11:22:00,
2013-05-27 06:27:00,72.9,68.1,29.97,SE,135,8.1,8.1,85,0.00,OVC,,0.00,190.0,WeatherDisplay:10.37,2013-05-27 11:27:00,
2013-05-27 06:32:00,72.9,68.1,29.98,South,180,5.8,5.8,85,0.00,OVC,,0.00,210.0,WeatherDisplay:10.37,2013-05-27 11:32:00,
2013-05-27 06:37:00,72.9,68.1,29.98,ENE,68,8.1,8.1,85,0.00,OVC,,0.00,210.0,WeatherDisplay:10.37,2013-05-27 11:37:00,
2013-05-27 06:42:00,72.9,68.1,29.98,SSW,202,3.5,3.5,85,0.00,OVC,,0.00,210.0,WeatherDisplay:10.37,2013-05-27 11:42:00,
2013-05-27 06:47:00,72.9,68.1,29.98,SSW,202,6.2,6.2,85,0.00,OVC,,0.00,210.0,WeatherDisplay:10.37,2013-05-27 11:47:00,
2013-05-27 06:52:00,72.9,68.1,29.98,SE,135,4.6,4.6,85,0.00,OVC,,0.00,220.0,WeatherDisplay:10.37,2013-05-27 11:52:00,
2013-05-27 06:58:00,72.7,67.6,29.98,SSE,158,5.8,5.8,84,0.00,OVC,,0.00,240.0,WeatherDisplay:10.37,2013-05-27 11:58:00,
2013-05-27 07:03:00,72.9,68.1,29.98,SW,225,4.6,4.6,85,0.00,OVC,,0.00,320.0,WeatherDisplay:10.37,2013-05-27 12:03:00,
2013-05-27 07:08:00,72.9,68.1,29.98,SE,135,2.6,3.8,85,0.00,OVC,,0.00,320.0,WeatherDisplay:10.37,2013-05-27 12:08:00,
2013-05-27 07:13:00,72.9,68.1,29.99,South,180,6.9,6.9,85,0.00,OVC,,0.00,490.0,WeatherDisplay:10.37,2013-05-27 12:13:00,
2013-05-27 07:18:00,72.7,67.9,29.99,South,180,7.2,7.2,85,0.00,OVC,,0.00,530.0,WeatherDisplay:10.37,2013-05-27 12:18:00,
2013-05-27 07:23:00,72.9,68.1,29.99,SE,135,6.9,6.9,85,0.00,OVC,,0.00,610.0,WeatherDisplay:10.37,2013-05-27 12:23:00,
2013-05-27 07:29:00,72.9,68.1,29.99,SW,225,5.8,5.8,85,0.00,OVC,,0.00,610.0,WeatherDisplay:10.37,2013-05-27 12:29:00,
2013-05-27 07:34:00,72.9,68.1,30.00,SSE,158,5.8,5.8,85,0.00,OVC,,0.00,810.0,WeatherDisplay:10.37,2013-05-27 12:34:00,
2013-05-27 07:39:00,72.9,68.1,30.00,South,180,9.2,9.2,85,0.00,OVC,,0.00,850.0,WeatherDisplay:10.37,2013-05-27 12:39:00,
2013-05-27 07:44:00,72.9,68.1,30.00,SE,135,5.8,5.8,85,0.00,OVC,,0.00,940.0,WeatherDisplay:10.37,2013-05-27 12:44:00,
2013-05-27 07:49:00,73.2,68.4,30.00,South,180,6.9,6.9,85,0.00,OVC,,0.00,860.0,WeatherDisplay:10.37,2013-05-27 12:49:00,
2013-05-27 07:54:00,73.2,68.4,30.00,SW,225,6.9,6.9,85,0.00,OVC,,0.00,500.0,WeatherDisplay:10.37,2013-05-27 12:54:00,
2013-05-27 07:59:00,73.2,68.4,30.00,WNW,292,4.6,4.6,85,0.00,OVC,,0.00,340.0,WeatherDisplay:10.37,2013-05-27 12:59:00,
2013-05-27 08:05:00,73.0,68.3,30.00,SSE,158,9.2,9.2,85,0.00,OVC,,0.00,310.0,WeatherDisplay:10.37,2013-05-27 13:05:00,
2013-05-27 08:10:00,73.0,68.3,30.01,SE,135,9.2,9.2,85,0.00,OVC,,0.00,310.0,WeatherDisplay:10.37,2013-05-27 13:10:00,
2013-05-27 08:15:00,73.4,68.6,30.01,South,180,8.1,8.1,85,0.00,OVC,,0.00,210.0,WeatherDisplay:10.37,2013-05-27 13:15:00,
2013-05-27 08:20:00,73.6,68.8,30.01,SSE,158,5.1,5.1,85,0.00,OVC,,0.00,130.0,WeatherDisplay:10.37,2013-05-27 13:20:00,
2013-05-27 08:25:00,73.6,68.8,30.01,SSE,158,10.4,10.4,85,0.00,OVC,,0.00,120.0,WeatherDisplay:10.37,2013-05-27 13:25:00,
2013-05-27 08:31:00,73.9,69.1,30.01,South,180,4.6,4.6,85,0.00,OVC,,0.00,90.0,WeatherDisplay:10.37,2013-05-27 13:31:00,
2013-05-27 08:36:00,73.8,68.6,30.01,SSE,158,5.8,5.8,84,0.00,OVC,,0.00,80.0,WeatherDisplay:10.37,2013-05-27 13:36:00,
2013-05-27 08:41:00,73.9,68.8,30.01,SSE,158,16.4,16.4,84,0.00,OVC,,0.00,80.0,WeatherDisplay:10.37,2013-05-27 13:41:00,
2013-05-27 08:46:00,73.8,68.6,30.01,WSW,248,8.1,8.1,84,0.00,OVC,,0.00,80.0,WeatherDisplay:10.37,2013-05-27 13:46:00,
2013-05-27 08:51:00,73.9,68.8,30.01,WSW,248,2.3,3.6,84,0.00,OVC,,0.00,70.0,WeatherDisplay:10.37,2013-05-27 13:51:00,
2013-05-27 08:57:00,73.9,68.8,30.01,ESE,112,1.2,2.9,84,0.00,OVC,,0.00,70.0,WeatherDisplay:10.37,2013-05-27 13:57:00,
2013-05-27 09:02:00,74.3,69.1,30.01,SE,135,6.9,6.9,84,0.00,OVC,,0.00,70.0,WeatherDisplay:10.37,2013-05-27 14:02:00,
2013-05-27 09:07:00,74.1,68.6,30.01,SW,225,5.8,5.8,83,0.00,OVC,,0.00,70.0,WeatherDisplay:10.37,2013-05-27 14:07:00,
2013-05-27 09:12:00,74.3,68.8,30.01,SSW,202,4.7,4.7,83,0.00,OVC,,0.00,70.0,WeatherDisplay:10.37,2013-05-27 14:12:00,
2013-05-27 09:18:00,74.7,69.2,30.01,South,180,4.6,4.6,83,0.00,OVC,,0.00,70.0,WeatherDisplay:10.37,2013-05-27 14:18:00,
2013-05-27 09:23:00,74.7,69.2,30.01,SSE,158,5.8,5.8,83,0.00,OVC,,0.00,50.0,WeatherDisplay:10.37,2013-05-27 14:23:00,
2013-05-27 09:28:00,74.7,68.8,30.01,ESE,112,4.6,4.6,82,0.00,OVC,,0.00,50.0,WeatherDisplay:10.37,2013-05-27 14:28:00,
2013-05-27 09:33:00,74.7,68.8,30.02,SSE,158,6.9,6.9,82,0.00,OVC,,0.00,40.0,WeatherDisplay:10.37,2013-05-27 14:33:00,
2013-05-27 09:38:00,75.0,69.1,30.02,SE,135,7.2,7.2,82,0.00,OVC,,0.00,40.0,WeatherDisplay:10.37,2013-05-27 14:38:00,
2013-05-27 09:43:00,75.0,69.1,30.02,SE,135,6.9,6.9,82,0.00,OVC,,0.00,50.0,WeatherDisplay:10.37,2013-05-27 14:43:00,
2013-05-27 09:49:00,75.2,69.3,30.02,ESE,112,2.3,3.5,82,0.00,OVC,,0.00,50.0,WeatherDisplay:10.37,2013-05-27 14:49:00,
2013-05-27 09:54:00,75.2,69.3,30.03,NNE,22,6.9,6.9,82,0.00,OVC,,0.00,40.0,WeatherDisplay:10.37,2013-05-27 14:54:00,
2013-05-27 09:59:00,75.4,69.1,30.03,South,180,5.8,5.8,81,0.00,OVC,,0.00,40.0,WeatherDisplay:10.37,2013-05-27 14:59:00,
2013-05-27 10:04:00,75.7,69.5,30.03,South,180,10.4,10.4,81,0.00,OVC,,0.00,20.0,WeatherDisplay:10.37,2013-05-27 15:04:00,
2013-05-27 10:09:00,75.9,69.7,30.03,SW,225,5.8,5.8,81,0.00,OVC,,0.00,20.0,WeatherDisplay:10.37,2013-05-27 15:09:00,
2013-05-27 10:14:00,76.1,69.5,30.01,SE,135,5.8,5.8,80,0.00,OVC,,0.00,20.0,WeatherDisplay:10.37,2013-05-27 15:14:00,
2013-05-27 10:19:00,75.9,69.3,30.01,SSE,158,11.5,11.5,80,0.00,OVC,,0.00,10.0,WeatherDisplay:10.37,2013-05-27 15:19:00,
2013-05-27 10:24:00,75.9,69.3,30.01,SSE,158,9.2,9.2,80,0.00,OVC,,0.00,10.0,WeatherDisplay:10.37,2013-05-27 15:24:00,
2013-05-27 10:29:00,76.1,69.5,30.01,SE,135,4.6,4.6,80,0.00,OVC,,0.00,20.0,WeatherDisplay:10.37,2013-05-27 15:29:00,
2013-05-27 10:35:00,76.5,69.8,30.01,South,180,2.3,4.3,80,0.00,OVC,,0.00,10.0,WeatherDisplay:10.37,2013-05-27 15:35:00,
2013-05-27 10:40:00,76.5,69.5,30.01,SSE,158,6.9,6.9,79,0.00,OVC,,0.00,10.0,WeatherDisplay:10.37,2013-05-27 15:40:00,
2013-05-27 10:45:00,76.3,69.7,30.01,SSW,202,4.9,4.9,80,0.00,OVC,,0.00,10.0,WeatherDisplay:10.37,2013-05-27 15:45:00,
2013-05-27 10:50:00,76.6,69.6,30.01,SSE,158,6.9,6.9,79,0.00,OVC,,0.00,20.0,WeatherDisplay:10.37,2013-05-27 15:50:00,
2013-05-27 10:55:00,76.6,69.6,30.01,SW,225,10.4,10.4,79,0.00,OVC,,0.00,20.0,WeatherDisplay:10.37,2013-05-27 15:55:00,
2013-05-27 11:00:00,76.8,69.4,30.01,South,180,4.6,4.6,78,0.00,OVC,,0.00,10.0,WeatherDisplay:10.37,2013-05-27 16:00:00,
2013-05-27 11:06:00,77.0,69.6,30.01,SSE,158,9.2,9.2,78,0.00,OVC,,0.00,10.0,WeatherDisplay:10.37,2013-05-27 16:06:00,
2013-05-27 11:11:00,77.2,70.2,30.01,SSE,158,8.1,8.1,79,0.00,OVC,,0.00,10.0,WeatherDisplay:10.37,2013-05-27 16:11:00,
2013-05-27 11:16:00,77.2,70.2,30.01,SE,135,10.4,10.4,79,0.00,OVC,,0.00,10.0,WeatherDisplay:10.37,2013-05-27 16:16:00,
2013-05-27 11:21:00,77.5,70.1,30.01,SE,135,5.8,5.8,78,0.00,OVC,,0.00,10.0,WeatherDisplay:10.37,2013-05-27 16:21:00,
2013-05-27 11:26:00,77.5,70.1,30.01,SE,135,6.9,6.9,78,0.00,CLR,,0.00,10.0,WeatherDisplay:10.37,2013-05-27 16:26:00,
2013-05-27 11:31:00,77.5,70.1,30.00,SSE,158,3.5,3.9,78,0.00,OVC,,0.00,0.0,WeatherDisplay:10.37,2013-05-27 16:31:00,
2013-05-27 11:36:00,77.5,70.1,30.00,SSE,158,7.4,7.4,78,0.00,OVC,,0.00,0.0,WeatherDisplay:10.37,2013-05-27 16:36:00,
2013-05-27 11:42:00,77.5,70.1,30.00,East,90,9.2,9.2,78,0.00,OVC,,0.00,0.0,WeatherDisplay:10.37,2013-05-27 16:42:00,
2013-05-27 11:47:00,77.9,70.5,30.00,West,270,5.8,5.8,78,0.00,OVC,,0.00,0.0,WeatherDisplay:10.37,2013-05-27 16:47:00,
2013-05-27 11:52:00,77.9,70.1,30.01,South,180,9.4,9.4,77,0.00,OVC,,0.00,10.0,WeatherDisplay:10.37,2013-05-27 16:52:00,
2013-05-27 11:57:00,78.3,70.5,30.01,SE,135,4.6,4.6,77,0.00,OVC,,0.00,10.0,WeatherDisplay:10.37,2013-05-27 16:57:00,
2013-05-27 12:02:00,78.3,70.1,30.01,SE,135,9.2,9.2,76,0.00,OVC,,0.00,10.0,WeatherDisplay:10.37,2013-05-27 17:02:00,
2013-05-27 12:08:00,78.3,70.1,30.01,SE,135,9.7,9.7,76,0.00,OVC,,0.00,10.0,WeatherDisplay:10.37,2013-05-27 17:08:00,
2013-05-27 12:13:00,78.6,70.4,30.00,SSE,158,8.1,8.1,76,0.00,OVC,,0.00,10.0,WeatherDisplay:10.37,2013-05-27 17:13:00,
2013-05-27 12:18:00,79.0,70.4,30.00,South,180,12.7,12.7,75,0.00,OVC,,0.00,10.0,WeatherDisplay:10.37,2013-05-27 17:18:00,
2013-05-27 12:23:00,78.8,70.2,30.00,SSE,158,5.8,5.8,75,0.00,OVC,,0.00,10.0,WeatherDisplay:10.37,2013-05-27 17:23:00,
2013-05-27 12:29:00,79.0,70.4,30.00,SE,135,4.6,4.9,75,0.00,OVC,,0.00,10.0,WeatherDisplay:10.37,2013-05-27 17:29:00,
2013-05-27 12:34:00,78.8,70.2,30.00,WSW,248,8.1,8.1,75,0.00,OVC,,0.00,0.0,WeatherDisplay:10.37,2013-05-27 17:34:00,
2013-05-27 12:39:00,79.0,70.4,30.00,SSE,158,4.9,5.3,75,0.00,OVC,,0.00,0.0,WeatherDisplay:10.37,2013-05-27 17:39:00,
2013-05-27 12:44:00,79.3,70.7,30.00,South,180,6.9,6.9,75,0.00,OVC,,0.00,0.0,WeatherDisplay:10.37,2013-05-27 17:44:00,
2013-05-27 12:49:00,79.3,70.3,30.00,West,270,4.6,4.6,74,0.00,OVC,,0.00,0.0,WeatherDisplay:10.37,2013-05-27 17:49:00,
2013-05-27 12:54:00,79.5,70.9,30.00,SSE,158,6.9,6.9,75,0.00,OVC,,0.00,10.0,WeatherDisplay:10.37,2013-05-27 17:54:00,
2013-05-27 12:59:00,79.5,70.5,30.00,SSE,158,3.5,4.4,74,0.00,OVC,,0.00,0.0,WeatherDisplay:10.37,2013-05-27 17:59:00,
2013-05-27 13:05:00,79.7,70.7,30.00,South,180,6.9,6.9,74,0.00,OVC,,0.00,0.0,WeatherDisplay:10.37,2013-05-27 18:05:00,
2013-05-27 13:10:00,79.7,70.3,29.99,SE,135,5.8,5.8,73,0.00,OVC,,0.00,0.0,WeatherDisplay:10.37,2013-05-27 18:10:00,
2013-05-27 13:15:00,79.7,70.3,29.99,ESE,112,5.8,5.8,73,0.00,OVC,,0.00,0.0,WeatherDisplay:10.37,2013-05-27 18:15:00,
2013-05-27 13:20:00,80.1,71.0,29.99,SSE,158,4.6,4.6,74,0.00,OVC,,0.00,10.0,WeatherDisplay:10.37,2013-05-27 18:20:00,
2013-05-27 13:26:00,80.4,71.0,29.99,South,180,5.8,5.8,73,0.00,OVC,,0.00,10.0,WeatherDisplay:10.37,2013-05-27 18:26:00,
2013-05-27 13:31:00,80.4,71.0,29.99,South,180,4.6,4.6,73,0.00,OVC,,0.00,0.0,WeatherDisplay:10.37,2013-05-27 18:31:00,
2013-05-27 13:36:00,80.4,70.6,29.99,West,270,3.5,3.6,72,0.00,OVC,,0.00,10.0,WeatherDisplay:10.37,2013-05-27 18:36:00,
2013-05-27 13:41:00,80.6,70.3,29.99,SE,135,6.9,6.9,71,0.00,OVC,,0.00,0.0,WeatherDisplay:10.37,2013-05-27 18:41:00,
2013-05-27 13:46:00,80.8,70.5,29.99,SSE,158,8.5,8.5,71,0.00,OVC,,0.00,0.0,WeatherDisplay:10.37,2013-05-27 18:46:00,
2013-05-27 13:51:00,81.0,70.7,29.98,South,180,3.5,3.6,71,0.00,OVC,,0.00,0.0,WeatherDisplay:10.37,2013-05-27 18:51:00,
2013-05-27 13:57:00,81.3,70.6,29.98,SSE,158,3.5,3.5,70,0.00,OVC,,0.00,10.0,WeatherDisplay:10.37,2013-05-27 18:57:00,
2013-05-27 14:02:00,81.5,70.3,29.98,South,180,11.5,11.5,69,0.00,OVC,,0.00,10.0,WeatherDisplay:10.37,2013-05-27 19:02:00,
2013-05-27 14:07:00,81.9,71.1,29.98,ESE,112,6.9,6.9,70,0.00,OVC,,0.00,10.0,WeatherDisplay:10.37,2013-05-27 19:07:00,
2013-05-27 14:13:00,81.9,70.7,29.98,SSE,158,5.8,5.8,69,0.00,OVC,,0.00,10.0,WeatherDisplay:10.37,2013-05-27 19:13:00,
2013-05-27 14:18:00,81.9,70.7,29.98,SSE,158,4.6,4.6,69,0.00,OVC,,0.00,10.0,WeatherDisplay:10.37,2013-05-27 19:18:00,
2013-05-27 14:23:00,82.2,71.0,29.98,SSE,158,6.9,6.9,69,0.00,OVC,,0.00,10.0,WeatherDisplay:10.37,2013-05-27 19:23:00,
2013-05-27 14:28:00,82.2,71.0,29.98,ESE,112,4.6,4.6,69,0.00,OVC,,0.00,10.0,WeatherDisplay:10.37,2013-05-27 19:28:00,
2013-05-27 14:33:00,82.0,70.9,29.97,South,180,4.6,4.6,69,0.00,OVC,,0.00,0.0,WeatherDisplay:10.37,2013-05-27 19:33:00,
2013-05-27 14:39:00,82.2,70.6,29.97,North,0,5.8,5.8,68,0.00,OVC,,0.00,0.0,WeatherDisplay:10.37,2013-05-27 19:39:00,
2013-05-27 14:44:00,82.2,70.6,29.97,SSE,158,4.6,4.6,68,0.00,OVC,,0.00,10.0,WeatherDisplay:10.37,2013-05-27 19:44:00,
2013-05-27 14:49:00,82.6,70.9,29.97,SW,225,4.6,4.6,68,0.00,OVC,,0.00,10.0,WeatherDisplay:10.37,2013-05-27 19:49:00,
2013-05-27 14:54:00,82.6,70.9,29.96,South,180,5.8,5.8,68,0.00,OVC,,0.00,10.0,WeatherDisplay:10.37,2013-05-27 19:54:00,
2013-05-27 14:59:00,82.8,70.2,29.96,SE,135,6.9,6.9,66,0.00,OVC,,0.00,0.0,WeatherDisplay:10.37,2013-05-27 19:59:00,
2013-05-27 15:05:00,82.6,70.1,29.96,SW,225,11.5,11.5,66,0.00,OVC,,0.00,0.0,WeatherDisplay:10.37,2013-05-27 20:05:00,
2013-05-27 15:10:00,82.6,70.5,29.96,SSE,158,8.1,8.1,67,0.00,OVC,,0.00,0.0,WeatherDisplay:10.37,2013-05-27 20:10:00,
2013-05-27 15:15:00,82.9,70.9,29.96,SSW,202,4.6,4.6,67,0.00,OVC,,0.00,0.0,WeatherDisplay:10.37,2013-05-27 20:15:00,
2013-05-27 15:20:00,82.8,70.7,29.96,NNE,22,5.8,5.8,67,0.00,OVC,,0.00,0.0,WeatherDisplay:10.37,2013-05-27 20:20:00,
2013-05-27 15:25:00,82.9,70.9,29.96,SSE,158,6.9,6.9,67,0.00,OVC,,0.00,0.0,WeatherDisplay:10.37,2013-05-27 20:25:00,
2013-05-27 15:30:00,83.1,71.0,29.95,SW,225,5.2,5.2,67,0.00,OVC,,0.00,0.0,WeatherDisplay:10.37,2013-05-27 20:30:00,
2013-05-27 15:35:00,83.3,70.8,29.95,SW,225,5.1,5.1,66,0.00,OVC,,0.00,0.0,WeatherDisplay:10.37,2013-05-27 20:35:00,
2013-05-27 15:41:00,83.3,70.8,29.95,ESE,112,4.6,4.6,66,0.00,OVC,,0.00,10.0,WeatherDisplay:10.37,2013-05-27 20:41:00,
2013-05-27 15:46:00,83.7,71.1,29.95,SSE,158,9.2,9.2,66,0.00,OVC,,0.00,10.0,WeatherDisplay:10.37,2013-05-27 20:46:00,
2013-05-27 15:51:00,83.8,71.3,29.94,SE,135,8.1,8.1,66,0.00,OVC,,0.00,10.0,WeatherDisplay:10.37,2013-05-27 20:51:00,
2013-05-27 15:56:00,84.0,71.4,29.94,South,180,12.7,12.7,66,0.00,OVC,,0.00,10.0,WeatherDisplay:10.37,2013-05-27 20:56:00,
2013-05-27 16:01:00,84.4,71.3,29.94,ENE,68,8.1,8.1,65,0.00,OVC,,0.00,0.0,WeatherDisplay:10.37,2013-05-27 21:01:00,
2013-05-27 16:06:00,84.4,71.3,29.94,ESE,112,4.6,4.6,65,0.00,OVC,,0.00,0.0,WeatherDisplay:10.37,2013-05-27 21:06:00,
2013-05-27 16:11:00,84.6,71.0,29.93,SSE,158,4.6,4.6,64,0.00,OVC,,0.00,10.0,WeatherDisplay:10.37,2013-05-27 21:11:00,
2013-05-27 16:17:00,84.6,71.5,29.93,South,180,8.1,8.1,65,0.00,OVC,,0.00,10.0,WeatherDisplay:10.37,2013-05-27 21:17:00,
2013-05-27 16:22:00,84.7,71.2,29.93,SSE,158,12.0,12.0,64,0.00,OVC,,0.00,0.0,WeatherDisplay:10.37,2013-05-27 21:22:00,
2013-05-27 16:27:00,84.9,71.4,29.93,ESE,112,6.9,6.9,64,0.00,OVC,,0.00,0.0,WeatherDisplay:10.37,2013-05-27 21:27:00,
2013-05-27 16:32:00,85.1,71.5,29.91,SE,135,9.2,9.2,64,0.00,OVC,,0.00,10.0,WeatherDisplay:10.37,2013-05-27 21:32:00,
2013-05-27 16:38:00,85.3,71.3,29.91,SSE,158,8.1,8.1,63,0.00,OVC,,0.00,10.0,WeatherDisplay:10.37,2013-05-27 21:38:00,
2013-05-27 16:43:00,84.9,70.4,29.91,SSE,158,8.1,8.1,62,0.00,OVC,,0.00,0.0,WeatherDisplay:10.37,2013-05-27 21:43:00,
2013-05-27 16:48:00,85.1,70.6,29.91,SSE,158,4.6,5.8,62,0.00,OVC,,0.00,0.0,WeatherDisplay:10.37,2013-05-27 21:48:00,
2013-05-27 16:53:00,84.9,70.9,29.91,SE,135,12.7,12.7,63,0.00,OVC,,0.00,0.0,WeatherDisplay:10.37,2013-05-27 21:53:00,
2013-05-27 16:58:00,85.1,71.1,29.91,SSW,202,9.2,9.2,63,0.00,OVC,,0.00,10.0,WeatherDisplay:10.37,2013-05-27 21:58:00,
2013-05-27 17:03:00,85.5,71.0,29.91,SSE,158,7.0,7.0,62,0.00,OVC,,0.00,10.0,WeatherDisplay:10.37,2013-05-27 22:03:00,
2013-05-27 17:09:00,85.5,71.0,29.91,SSE,158,10.4,10.4,62,0.00,OVC,,0.00,10.0,WeatherDisplay:10.37,2013-05-27 22:09:00,
2013-05-27 17:14:00,86.0,71.5,29.89,South,180,4.6,4.6,62,0.00,OVC,,0.00,10.0,WeatherDisplay:10.37,2013-05-27 22:14:00,
2013-05-27 17:19:00,86.2,71.2,29.89,South,180,6.2,6.2,61,0.00,OVC,,0.00,10.0,WeatherDisplay:10.37,2013-05-27 22:19:00,
2013-05-27 17:24:00,86.0,71.5,29.89,SE,135,6.9,6.9,62,0.00,OVC,,0.00,10.0,WeatherDisplay:10.37,2013-05-27 22:24:00,
2013-05-27 17:29:00,85.6,71.1,29.89,SSE,158,5.8,5.8,62,0.00,OVC,,0.00,0.0,WeatherDisplay:10.37,2013-05-27 22:29:00,
2013-05-27 17:34:00,85.6,71.1,29.89,SSE,158,6.9,6.9,62,0.00,OVC,,0.00,0.0,WeatherDisplay:10.37,2013-05-27 22:34:00,
2013-05-27 17:39:00,85.8,70.8,29.89,SSE,158,10.4,10.4,61,0.00,OVC,,0.00,0.0,WeatherDisplay:10.37,2013-05-27 22:39:00,
2013-05-27 17:45:00,85.6,70.6,29.89,South,180,10.4,10.4,61,0.00,OVC,,0.00,0.0,WeatherDisplay:10.37,2013-05-27 22:45:00,
2013-05-27 17:50:00,86.2,71.6,29.88,SE,135,4.6,4.8,62,0.00,OVC,,0.00,0.0,WeatherDisplay:10.37,2013-05-27 22:50:00,
2013-05-27 17:55:00,86.0,71.0,29.88,South,180,6.9,6.9,61,0.00,OVC,,0.00,10.0,WeatherDisplay:10.37,2013-05-27 22:55:00,
2013-05-27 18:00:00,86.2,71.2,29.88,South,180,6.9,6.9,61,0.00,OVC,,0.00,10.0,WeatherDisplay:10.37,2013-05-27 23:00:00,
2013-05-27 18:05:00,86.5,72.0,29.88,SSE,158,6.9,6.9,62,0.00,OVC,,0.00,0.0,WeatherDisplay:10.37,2013-05-27 23:05:00,
2013-05-27 18:11:00,86.4,71.8,29.87,SE,135,10.4,10.4,62,0.00,OVC,,0.00,10.0,WeatherDisplay:10.37,2013-05-27 23:11:00,
2013-05-27 18:16:00,86.2,71.2,29.87,NNW,338,6.9,6.9,61,0.00,OVC,,0.00,0.0,WeatherDisplay:10.37,2013-05-27 23:16:00,
2013-05-27 18:21:00,85.8,70.8,29.87,SE,135,9.2,9.2,61,0.00,OVC,,0.00,0.0,WeatherDisplay:10.37,2013-05-27 23:21:00,
2013-05-27 18:26:00,85.6,71.1,29.87,SE,135,6.9,6.9,62,0.00,OVC,,0.00,0.0,WeatherDisplay:10.37,2013-05-27 23:26:00,
2013-05-27 18:31:00,86.0,71.0,29.85,ESE,112,9.2,9.2,61,0.00,OVC,,0.00,0.0,WeatherDisplay:10.37,2013-05-27 23:31:00,
2013-05-27 18:36:00,86.2,71.2,29.85,South,180,13.8,13.8,61,0.00,OVC,,0.00,0.0,WeatherDisplay:10.37,2013-05-27 23:36:00,
2013-05-27 18:41:00,86.4,70.8,29.85,SSE,158,11.5,11.5,60,0.00,OVC,,0.00,0.0,WeatherDisplay:10.37,2013-05-27 23:41:00,
2013-05-27 18:47:00,86.7,71.2,29.85,SSE,158,7.2,7.2,60,0.00,OVC,,0.00,0.0,WeatherDisplay:10.37,2013-05-27 23:47:00,
2013-05-27 18:52:00,86.7,71.2,29.83,SSE,158,9.2,9.2,60,0.00,OVC,,0.00,0.0,WeatherDisplay:10.37,2013-05-27 23:52:00,
2013-05-27 18:57:00,86.7,71.2,29.83,SE,135,6.9,6.9,60,0.00,OVC,,0.00,0.0,WeatherDisplay:10.37,2013-05-27 23:57:00,
2013-05-27 19:02:00,86.2,70.7,29.83,SSE,158,10.4,10.4,60,0.00,OVC,,0.00,0.0,WeatherDisplay:10.37,2013-05-28 00:02:00,
2013-05-27 19:07:00,85.8,70.3,29.83,SE,135,9.2,9.2,60,0.00,OVC,,0.00,0.0,WeatherDisplay:10.37,2013-05-28 00:07:00,
2013-05-27 19:12:00,85.8,70.8,29.84,SE,135,10.4,10.4,61,0.00,OVC,,0.00,10.0,WeatherDisplay:10.37,2013-05-28 00:12:00,
2013-05-27 19:17:00,85.3,70.3,29.84,SSE,158,9.2,9.2,61,0.00,OVC,,0.00,10.0,WeatherDisplay:10.37,2013-05-28 00:17:00,
2013-05-27 19:23:00,85.3,70.3,29.84,SSE,158,8.1,8.1,61,0.00,OVC,,0.00,10.0,WeatherDisplay:10.37,2013-05-28 00:23:00,
2013-05-27 19:28:00,85.1,70.6,29.84,SE,135,8.1,8.1,62,0.00,OVC,,0.00,10.0,WeatherDisplay:10.37,2013-05-28 00:28:00,
2013-05-27 19:33:00,85.1,70.6,29.84,SSE,158,4.6,4.6,62,0.00,OVC,,0.00,10.0,WeatherDisplay:10.37,2013-05-28 00:33:00,
2013-05-27 19:38:00,84.7,70.3,29.84,NW,315,5.8,5.8,62,0.00,OVC,,0.00,10.0,WeatherDisplay:10.37,2013-05-28 00:38:00,
2013-05-27 19:44:00,84.7,70.7,29.84,South,180,6.9,6.9,63,0.00,OVC,,0.00,10.0,WeatherDisplay:10.37,2013-05-28 00:44:00,
2013-05-27 19:49:00,84.6,70.6,29.84,WSW,248,6.9,6.9,63,0.00,OVC,,0.00,10.0,WeatherDisplay:10.37,2013-05-28 00:49:00,
2013-05-27 19:54:00,84.4,69.9,29.85,SSE,158,8.1,8.1,62,0.00,OVC,,0.00,20.0,WeatherDisplay:10.37,2013-05-28 00:54:00,
2013-05-27 19:59:00,84.2,69.8,29.85,ESE,112,4.6,4.6,62,0.00,OVC,,0.00,20.0,WeatherDisplay:10.37,2013-05-28 00:59:00,
2013-05-27 20:05:00,84.4,69.9,29.85,SSE,158,6.0,6.0,62,0.00,OVC,,0.00,20.0,WeatherDisplay:10.37,2013-05-28 01:05:00,
2013-05-27 20:10:00,84.0,69.6,29.85,SE,135,9.2,9.2,62,0.00,OVC,,0.00,20.0,WeatherDisplay:10.37,2013-05-28 01:10:00,
2013-05-27 20:15:00,83.8,69.9,29.85,SSE,158,2.3,3.8,63,0.00,OVC,,0.00,20.0,WeatherDisplay:10.37,2013-05-28 01:15:00,
2013-05-27 20:20:00,83.8,69.9,29.85,SSE,158,6.0,6.0,63,0.00,OVC,,0.00,30.0,WeatherDisplay:10.37,2013-05-28 01:20:00,
2013-05-27 20:25:00,83.8,69.9,29.85,ESE,112,6.9,6.9,63,0.00,OVC,,0.00,40.0,WeatherDisplay:10.37,2013-05-28 01:25:00,
2013-05-27 20:31:00,83.7,70.2,29.87,South,180,5.8,5.8,64,0.00,OVC,,0.00,40.0,WeatherDisplay:10.37,2013-05-28 01:31:00,
2013-05-27 20:36:00,83.7,70.2,29.87,ENE,68,8.1,8.1,64,0.00,OVC,,0.00,50.0,WeatherDisplay:10.37,2013-05-28 01:36:00,
2013-05-27 20:41:00,83.3,69.8,29.87,SSE,158,8.1,8.1,64,0.00,OVC,,0.00,70.0,WeatherDisplay:10.37,2013-05-28 01:41:00,
2013-05-27 20:46:00,83.1,69.7,29.87,SSE,158,5.8,5.8,64,0.00,OVC,,0.00,70.0,WeatherDisplay:10.37,2013-05-28 01:46:00,
2013-05-27 20:52:00,83.3,69.8,29.85,South,180,8.2,8.2,64,0.00,OVC,,0.00,90.0,WeatherDisplay:10.37,2013-05-28 01:52:00,
2013-05-27 20:57:00,83.1,69.7,29.85,SE,135,3.5,4.5,64,0.00,OVC,,0.00,90.0,WeatherDisplay:10.37,2013-05-28 01:57:00,
2013-05-27 21:02:00,82.9,70.0,29.85,SE,135,9.2,9.2,65,0.00,CLR,,0.00,110.0,WeatherDisplay:10.37,2013-05-28 02:02:00,
2013-05-27 21:07:00,82.9,70.0,29.85,South,180,9.2,9.2,65,0.00,CLR,,0.00,110.0,WeatherDisplay:10.37,2013-05-28 02:07:00,
2013-05-27 21:12:00,82.8,69.8,29.85,SSE,158,8.1,8.1,65,0.00,CLR,,0.00,130.0,WeatherDisplay:10.37,2013-05-28 02:12:00,
2013-05-27 21:18:00,82.6,70.1,29.85,SSE,158,5.8,5.8,66,0.00,CLR,,0.00,0.0,WeatherDisplay:10.37,2013-05-28 02:18:00,
2013-05-27 21:23:00,82.6,70.1,29.85,South,180,8.1,8.1,66,0.00,CLR,,0.00,160.0,WeatherDisplay:10.37,2013-05-28 02:23:00,
2013-05-27 21:28:00,82.4,69.9,29.85,SSE,158,8.1,8.1,66,0.00,CLR,,0.00,160.0,WeatherDisplay:10.37,2013-05-28 02:28:00,
2013-05-27 21:33:00,82.4,70.3,29.86,NNW,338,6.9,6.9,67,0.00,CLR,,0.00,180.0,WeatherDisplay:10.37,2013-05-28 02:33:00,
2013-05-27 21:38:00,82.2,70.2,29.86,ESE,112,10.4,10.4,67,0.00,CLR,,0.00,180.0,WeatherDisplay:10.37,2013-05-28 02:38:00,
2013-05-27 21:43:00,82.2,70.2,29.86,SE,135,6.9,6.9,67,0.00,CLR,,0.00,190.0,WeatherDisplay:10.37,2013-05-28 02:43:00,
2013-05-27 21:48:00,82.0,70.0,29.86,SSE,158,6.9,6.9,67,0.00,CLR,,0.00,190.0,WeatherDisplay:10.37,2013-05-28 02:48:00,
2013-05-27 21:54:00,82.0,70.0,29.86,SSE,158,3.5,4.6,67,0.00,CLR,,0.00,220.0,WeatherDisplay:10.37,2013-05-28 02:54:00,
2013-05-27 21:59:00,81.9,69.8,29.86,SE,135,6.9,6.9,67,0.00,CLR,,0.00,220.0,WeatherDisplay:10.37,2013-05-28 02:59:00,
2013-05-27 22:04:00,81.9,69.8,29.86,SSE,158,6.9,6.9,67,0.00,CLR,,0.00,220.0,WeatherDisplay:10.37,2013-05-28 03:04:00,
2013-05-27 22:09:00,81.7,69.7,29.86,East,90,6.0,6.0,67,0.00,CLR,,0.00,220.0,WeatherDisplay:10.37,2013-05-28 03:09:00,
2013-05-27 22:14:00,81.9,70.3,29.87,SW,225,4.6,5.8,68,0.00,CLR,,0.00,250.0,WeatherDisplay:10.37,2013-05-28 03:14:00,
2013-05-27 22:19:00,81.5,69.9,29.87,SSE,158,9.2,9.2,68,0.00,CLR,,0.00,250.0,WeatherDisplay:10.37,2013-05-28 03:19:00,
2013-05-27 22:25:00,81.5,69.9,29.87,SSW,202,6.9,6.9,68,0.00,CLR,,0.00,250.0,WeatherDisplay:10.37,2013-05-28 03:25:00,
2013-05-27 22:30:00,81.3,69.7,29.88,SSE,158,8.1,8.1,68,0.00,CLR,,0.00,260.0,WeatherDisplay:10.37,2013-05-28 03:30:00,
2013-05-27 22:35:00,81.5,69.9,29.88,SE,135,5.8,5.8,68,0.00,CLR,,0.00,270.0,WeatherDisplay:10.37,2013-05-28 03:35:00,
2013-05-27 22:40:00,81.1,69.6,29.88,ESE,112,5.8,5.8,68,0.00,CLR,,0.00,280.0,WeatherDisplay:10.37,2013-05-28 03:40:00,
2013-05-27 22:45:00,81.1,70.0,29.88,SSE,158,4.8,4.8,69,0.00,CLR,,0.00,290.0,WeatherDisplay:10.37,2013-05-28 03:45:00,
2013-05-27 22:50:00,81.0,69.8,29.88,SE,135,4.6,4.6,69,0.00,CLR,,0.00,290.0,WeatherDisplay:10.37,2013-05-28 03:50:00,
2013-05-27 22:55:00,81.0,69.8,29.88,South,180,8.3,8.3,69,0.00,CLR,,0.00,290.0,WeatherDisplay:10.37,2013-05-28 03:55:00,
2013-05-27 23:00:00,80.8,69.2,29.88,SW,225,8.1,8.1,68,0.00,CLR,,0.00,310.0,WeatherDisplay:10.37,2013-05-28 04:00:00,
2013-05-27 23:01:00,80.8,69.2,29.88,SW,225,8.1,8.1,68,0.00,CLR,,0.00,0.0,WeatherDisplay:10.37,2013-05-28 04:01:00,
2013-05-27 23:02:00,80.8,69.2,29.88,NW,315,8.1,8.1,68,0.00,CLR,,0.00,320.0,WeatherDisplay:10.37,2013-05-28 04:02:00,
2013-05-27 23:04:00,80.8,69.7,29.88,SSE,158,4.6,5.1,69,0.00,CLR,,0.00,320.0,WeatherDisplay:10.37,2013-05-28 04:04:00,
2013-05-27 23:07:00,80.8,69.2,29.88,SE,135,7.4,7.4,68,0.00,CLR,,0.00,320.0,WeatherDisplay:10.37,2013-05-28 04:07:00,
2013-05-27 23:12:00,80.8,69.2,29.88,SSE,158,4.6,5.1,68,0.00,CLR,,0.00,330.0,WeatherDisplay:10.37,2013-05-28 04:12:00,
2013-05-27 23:18:00,80.6,69.5,29.88,SE,135,10.2,10.2,69,0.00,CLR,,0.00,350.0,WeatherDisplay:10.37,2013-05-28 04:18:00,
2013-05-27 23:23:00,80.4,69.3,29.88,SE,135,9.2,9.2,69,0.00,CLR,,0.00,0.0,WeatherDisplay:10.37,2013-05-28 04:23:00,
2013-05-27 23:28:00,80.2,69.1,29.88,SE,135,4.6,6.3,69,0.00,CLR,,0.00,350.0,WeatherDisplay:10.37,2013-05-28 04:28:00,
2013-05-27 23:33:00,80.4,69.3,29.88,SSE,158,9.2,9.2,69,0.00,CLR,,0.00,360.0,WeatherDisplay:10.37,2013-05-28 04:33:00,
2013-05-27 23:38:00,80.2,69.1,29.88,SSE,158,9.2,9.2,69,0.00,CLR,,0.00,340.0,WeatherDisplay:10.37,2013-05-28 04:38:00,
2013-05-27 23:44:00,80.1,69.0,29.88,SSE,158,6.9,6.9,69,0.00,CLR,,0.00,340.0,WeatherDisplay:10.37,2013-05-28 04:44:00,
2013-05-27 23:49:00,79.9,68.8,29.88,SE,135,3.5,4.8,69,0.00,CLR,,0.00,340.0,WeatherDisplay:10.37,2013-05-28 04:49:00,
2013-05-27 23:54:00,79.7,69.0,29.88,SW,225,10.4,10.4,70,0.00,CLR,,0.00,330.0,WeatherDisplay:10.37,2013-05-28 04:54:00,
2013-05-27 23:59:00,79.7,69.0,29.88,SSE,158,4.6,4.6,70,0.00,CLR,,0.00,340.0,WeatherDisplay:10.37,2013-05-28 04:59:00,